createdAt,value
2018-04-17T10:49:44.071Z,21.40
2018-04-17T10:52:11.795Z,21.30
2018-04-17T10:54:40.310Z,21.50
2018-04-17T10:57:08.390Z,21.70
2018-04-17T10:59:35.944Z,21.90
2018-04-17T11:02:03.437Z,22.10
2018-04-17T11:04:30.944Z,22.30
2018-04-17T11:07:00.771Z,23.20
2018-04-17T11:09:28.799Z,23.20
2018-04-17T11:11:56.855Z,23.70
2018-04-17T11:14:26.237Z,23.70
2018-04-17T11:16:53.743Z,23.70
2018-04-17T11:19:22.058Z,23.90
2018-04-17T11:21:51.317Z,24.20
2018-04-17T11:24:20.972Z,24.50
2018-04-17T11:26:50.736Z,24.60
2018-04-17T11:29:19.017Z,24.80
2018-04-17T11:31:46.511Z,24.80
2018-04-17T11:34:15.000Z,23.90
2018-04-17T11:36:43.805Z,23.90
2018-04-17T11:39:12.244Z,23.40
2018-04-17T11:41:41.413Z,23.10
2018-04-17T11:44:08.980Z,22.90
2018-04-17T11:46:38.844Z,22.90
2018-04-17T11:49:07.036Z,22.90
2018-04-17T11:51:35.108Z,22.80
2018-04-17T11:54:03.642Z,22.80
2018-04-17T11:56:32.998Z,22.70
2018-04-17T11:59:01.428Z,22.70
2018-04-17T12:01:28.920Z,23.40
2018-04-17T12:03:57.852Z,24.10
2018-04-17T12:06:25.372Z,25.10
2018-04-17T12:08:53.712Z,25.70
2018-04-17T12:11:21.971Z,26.10
2018-04-17T12:13:50.309Z,26.60
2018-04-17T12:16:18.640Z,26.70
2018-04-17T12:18:46.371Z,26.20
2018-04-17T12:21:14.036Z,25.70
2018-04-17T12:23:42.374Z,25.40
2018-04-17T12:26:10.750Z,25.30
2018-04-17T12:28:39.020Z,24.90
2018-04-17T12:31:06.537Z,24.80
2018-04-17T12:33:35.848Z,24.50
2018-04-17T12:36:03.372Z,24.40
2018-04-17T12:38:33.550Z,24.60
2018-04-17T12:41:01.126Z,25.20
2018-04-17T12:43:29.391Z,26.40
2018-04-17T12:45:57.487Z,26.40
2018-04-17T12:48:25.859Z,26.90
2018-04-17T12:50:53.375Z,27.30
2018-04-17T12:53:21.689Z,27.70
2018-04-17T12:55:49.649Z,28.10
2018-04-17T12:58:17.163Z,28.40
2018-04-17T13:00:44.673Z,28.70
2018-04-17T13:03:12.201Z,29.00
2018-04-17T13:05:39.717Z,29.20
2018-04-17T13:08:07.247Z,29.30
2018-04-17T13:10:36.331Z,29.70
2018-04-17T13:13:07.164Z,29.80
2018-04-17T13:15:34.694Z,30.00
2018-04-17T13:18:02.976Z,29.50
2018-04-17T13:20:31.094Z,28.70
2018-04-17T13:22:58.628Z,28.00
2018-04-17T13:25:26.171Z,27.80
2018-04-17T13:27:54.471Z,27.90
2018-04-17T13:30:22.022Z,27.90
2018-04-17T13:32:49.820Z,28.60
2018-04-17T13:35:17.708Z,29.30
2018-04-17T13:37:46.058Z,29.20
2018-04-17T13:40:13.586Z,28.20
2018-04-17T13:42:41.112Z,27.70
2018-04-17T13:45:08.836Z,27.20
2018-04-17T13:47:37.261Z,27.40
2018-04-17T13:50:05.313Z,27.30
2018-04-17T13:52:33.230Z,26.90
2018-04-17T13:55:00.777Z,26.70
2018-04-17T13:57:31.842Z,27.40
2018-04-17T14:00:00.094Z,27.30
2018-04-17T14:02:27.631Z,28.00
2018-04-17T14:04:55.127Z,28.50
2018-04-17T14:07:22.655Z,28.80
2018-04-17T14:09:50.210Z,29.10
2018-04-17T14:12:18.509Z,29.40
2018-04-17T14:14:46.032Z,29.70
2018-04-17T14:17:13.593Z,29.80
2018-04-17T14:19:41.089Z,30.10
2018-04-17T14:22:09.388Z,30.00
2018-04-17T14:24:37.680Z,29.90
2018-04-17T14:27:05.729Z,29.10
2018-04-17T14:29:33.974Z,29.00
2018-04-17T14:32:02.597Z,28.40
2018-04-17T14:34:30.261Z,28.30
2018-04-17T14:36:57.776Z,28.80
2018-04-17T14:39:25.291Z,29.30
2018-04-17T14:41:52.805Z,29.80
2018-04-17T14:44:21.219Z,30.10
2018-04-17T14:46:48.790Z,30.40
2018-04-17T14:49:16.367Z,30.10
2018-04-17T14:51:44.821Z,30.00
2018-04-17T14:54:12.490Z,30.20
2018-04-17T14:56:40.868Z,30.40
2018-04-17T14:59:08.369Z,30.80
2018-04-17T15:01:36.808Z,30.90
2018-04-17T15:04:05.189Z,30.60
2018-04-17T15:06:33.872Z,30.30
2018-04-17T15:09:02.353Z,30.40
2018-04-17T15:11:29.911Z,30.40
2018-04-17T15:13:57.440Z,30.50
2018-04-17T15:16:25.105Z,30.20
2018-04-17T15:18:54.151Z,30.20
2018-04-17T15:21:21.645Z,30.10
2018-04-17T15:23:49.256Z,30.60
2018-04-17T15:26:16.765Z,30.60
2018-04-17T15:28:44.325Z,30.40
2018-04-17T15:31:11.833Z,29.90
2018-04-17T15:33:40.325Z,29.80
2018-04-17T15:36:07.820Z,30.10
2018-04-17T15:38:35.360Z,30.40
2018-04-17T15:41:02.853Z,30.40
2018-04-17T15:43:31.154Z,30.70
2018-04-17T15:45:58.653Z,31.10
2018-04-17T15:48:26.293Z,31.20
2018-04-17T15:50:53.796Z,31.30
2018-04-17T15:53:21.325Z,31.30
2018-04-17T15:55:48.822Z,31.30
2018-04-17T15:58:16.489Z,31.30
2018-04-17T16:00:45.478Z,31.20
2018-04-17T16:03:13.749Z,31.20
2018-04-17T16:05:42.181Z,31.20
2018-04-17T16:08:09.700Z,31.20
2018-04-17T16:10:37.218Z,31.10
2018-04-17T16:13:04.755Z,31.20
2018-04-17T16:15:33.856Z,31.40
2018-04-17T16:18:01.908Z,31.40
2018-04-17T16:20:30.174Z,31.20
2018-04-17T16:22:58.464Z,31.20
2018-04-17T16:25:26.732Z,31.10
2018-04-17T16:27:54.249Z,31.10
2018-04-17T16:30:21.745Z,31.10
2018-04-17T16:32:49.267Z,31.00
2018-04-17T16:35:16.764Z,30.90
2018-04-17T16:37:45.017Z,30.80
2018-04-17T16:40:12.516Z,30.70
2018-04-17T16:42:40.962Z,30.70
2018-04-17T16:45:09.307Z,30.60
2018-04-17T16:47:37.094Z,30.40
2018-04-17T16:50:04.618Z,30.00
2018-04-17T16:52:32.135Z,29.60
2018-04-17T16:54:59.642Z,29.30
2018-04-17T16:57:27.165Z,29.20
2018-04-17T16:59:55.461Z,29.20
2018-04-17T17:02:23.805Z,29.30
2018-04-17T17:04:51.300Z,29.30
2018-04-17T17:07:18.814Z,29.40
2018-04-17T17:09:46.955Z,29.30
2018-04-17T17:12:15.744Z,29.20
2018-04-17T17:14:44.005Z,28.70
2018-04-17T17:17:11.578Z,28.70
2018-04-17T17:19:39.464Z,28.40
2018-04-17T17:22:08.020Z,27.80
2018-04-17T17:24:37.136Z,27.50
2018-04-17T17:27:06.131Z,27.40
2018-04-17T17:29:34.410Z,27.20
2018-04-17T17:32:03.479Z,27.00
2018-04-17T17:34:31.237Z,26.90
2018-04-17T17:36:59.497Z,26.70
2018-04-17T17:39:27.758Z,26.70
2018-04-17T17:41:56.282Z,26.50
2018-04-17T17:44:24.781Z,26.30
2018-04-17T17:46:52.288Z,26.30
2018-04-17T17:49:23.238Z,26.20
2018-04-17T17:51:50.828Z,26.10
2018-04-17T17:54:19.389Z,26.20
2018-04-17T17:56:46.954Z,26.10
2018-04-17T17:59:14.767Z,26.00
2018-04-17T18:01:42.288Z,25.90
2018-04-17T18:04:09.848Z,25.30
2018-04-17T18:06:38.387Z,25.20
2018-04-17T18:09:07.116Z,25.00
2018-04-17T18:11:34.648Z,24.80
2018-04-17T18:14:02.525Z,24.60
2018-04-17T18:16:31.787Z,24.50
2018-04-17T18:19:00.349Z,24.20
2018-04-17T18:21:28.821Z,24.00
2018-04-17T18:23:57.152Z,23.70
2018-04-17T18:26:24.719Z,23.70
2018-04-17T18:28:52.271Z,23.50
2018-04-17T18:31:21.428Z,23.40
2018-04-17T18:33:49.635Z,23.40
2018-04-17T18:36:17.132Z,23.30
2018-04-17T18:38:44.705Z,23.30
2018-04-17T18:41:13.580Z,23.10
2018-04-17T18:43:42.232Z,22.90
2018-04-17T18:46:11.386Z,22.90
2018-04-17T18:48:38.905Z,22.90
2018-04-17T18:51:07.409Z,22.80
2018-04-17T18:53:35.261Z,22.80
2018-04-17T18:56:03.109Z,22.60
2018-04-17T18:58:30.615Z,22.70
2018-04-17T19:00:58.888Z,22.60
2018-04-17T19:03:27.463Z,22.70
2018-04-17T19:05:55.049Z,22.80
2018-04-17T19:08:22.568Z,22.80
2018-04-17T19:10:50.085Z,22.80
2018-04-17T19:13:18.439Z,22.80
2018-04-17T19:15:45.988Z,22.70
2018-04-17T19:18:13.523Z,22.70
2018-04-17T19:20:41.100Z,22.80
2018-04-17T19:23:08.590Z,22.70
2018-04-17T19:25:36.804Z,22.70
2018-04-17T19:28:12.100Z,22.70
2018-04-17T19:30:40.458Z,22.70
2018-04-17T19:33:07.962Z,22.70
2018-04-17T19:35:35.500Z,22.70
2018-04-17T19:38:03.017Z,22.60
2018-04-17T19:40:31.200Z,22.70
2018-04-17T19:42:59.643Z,22.70
2018-04-17T19:45:28.415Z,22.60
2018-04-17T19:47:56.628Z,22.60
2018-04-17T19:50:24.623Z,22.60
2018-04-17T19:52:53.192Z,22.40
2018-04-17T19:55:22.071Z,22.40
2018-04-17T19:57:49.560Z,22.20
2018-04-17T20:00:18.773Z,22.00
2018-04-17T20:02:46.288Z,22.00
2018-04-17T20:05:14.155Z,22.00
2018-04-17T20:07:42.464Z,22.10
2018-04-17T20:10:10.160Z,21.90
2018-04-17T20:12:38.965Z,21.20
2018-04-17T20:15:07.205Z,21.20
2018-04-17T20:17:35.524Z,20.90
2018-04-17T20:20:03.264Z,20.60
2018-04-17T20:22:30.788Z,20.30
2018-04-17T20:24:58.341Z,20.00
2018-04-17T20:27:26.592Z,19.70
2018-04-17T20:29:54.736Z,19.50
2018-04-17T20:32:22.901Z,19.30
2018-04-17T20:34:50.668Z,19.20
2018-04-17T20:37:18.966Z,19.20
2018-04-17T20:39:46.465Z,19.20
2018-04-17T20:42:15.352Z,19.20
2018-04-17T20:44:43.589Z,19.20
2018-04-17T20:47:11.113Z,19.10
2018-04-17T20:49:38.637Z,19.00
2018-04-17T20:52:06.923Z,18.90
2018-04-17T20:54:35.267Z,18.80
2018-04-17T20:57:04.216Z,18.60
2018-04-17T20:59:31.734Z,18.60
2018-04-17T21:01:59.625Z,18.60
2018-04-17T21:04:27.148Z,18.40
2018-04-17T21:06:55.432Z,18.30
2018-04-17T21:09:23.565Z,18.30
2018-04-17T21:11:51.076Z,18.00
2018-04-17T21:14:19.104Z,18.10
2018-04-17T21:16:47.536Z,18.10
2018-04-17T21:19:15.449Z,18.10
2018-04-17T21:21:43.785Z,18.00
2018-04-17T21:24:11.283Z,17.90
2018-04-17T21:26:39.592Z,17.90
2018-04-17T21:29:07.092Z,17.80
2018-04-17T21:31:35.383Z,17.70
2018-04-17T21:34:02.892Z,17.70
2018-04-17T21:36:31.180Z,17.60
2018-04-17T21:39:01.590Z,17.50
2018-04-17T21:41:29.114Z,17.50
2018-04-17T21:43:56.620Z,17.50
2018-04-17T21:46:24.940Z,17.50
2018-04-17T21:48:52.488Z,17.40
2018-04-17T21:51:21.497Z,17.40
2018-04-17T21:53:48.995Z,17.30
2018-04-17T21:56:16.503Z,17.20
2018-04-17T21:58:44.518Z,17.20
2018-04-17T22:01:12.369Z,17.30
2018-04-17T22:03:39.923Z,17.10
2018-04-17T22:06:08.099Z,17.10
2018-04-17T22:08:36.131Z,17.00
2018-04-17T22:11:03.655Z,16.90
2018-04-17T22:13:32.663Z,16.90
2018-04-17T22:16:00.122Z,16.80
2018-04-17T22:18:28.403Z,16.60
2018-04-17T22:20:56.668Z,16.40
2018-04-17T22:23:24.180Z,16.40
2018-04-17T22:25:51.696Z,16.40
2018-04-17T22:28:19.980Z,16.30
2018-04-17T22:30:47.804Z,16.30
2018-04-17T22:33:15.570Z,16.30
2018-04-17T22:35:43.075Z,16.20
2018-04-17T22:38:11.347Z,16.20
2018-04-17T22:40:38.843Z,16.20
2018-04-17T22:43:06.364Z,16.10
2018-04-17T22:45:34.775Z,16.00
2018-04-17T22:48:02.330Z,15.90
2018-04-17T22:50:29.844Z,15.90
2018-04-17T22:52:58.229Z,15.90
2018-04-17T22:55:25.729Z,15.90
2018-04-17T22:57:53.236Z,16.00
2018-04-17T23:00:20.745Z,15.90
2018-04-17T23:02:48.268Z,15.80
2018-04-17T23:05:15.763Z,15.70
2018-04-17T23:07:43.293Z,15.70
2018-04-17T23:10:10.805Z,15.60
2018-04-17T23:12:38.326Z,15.60
2018-04-17T23:15:05.828Z,15.50
2018-04-17T23:17:33.333Z,15.50
2018-04-17T23:20:00.828Z,15.50
